Garfield, KY (40140)

12:22 AM CST die 20o February, anno 2017 (GMT -0600)
Eveleigh Road | | Change Station
Active Advisory: Dense Fog Advisory

Elev 670 ft 37.58 °N, 86.34 °W | Updated 0 second ago

Caligo
Caligo
40.8 °F
Feels Like 41 °F
N
0.0
Ventus Variabilis Ventus from Eurus
Gusts 0.0 mph

Hodie
High -- | Low -- °F
--% Chance of Precip.
Yesterday
High -- | Low -- °F
Precip. -- in
Pressio 30.15 in
Visibilitas 0.5 milia passuum
Clouds Serena
Frigus Venti 41 °F
Frigus in quo Ros apparet 41 °F
Umor 99%
Rainfall 0.00 in
Snow Depth Not available.
6:28 AM 5:29 PM
Last Quarter, 37% visible
SPECI KFTK 200618Z AUTO 00000KT 1/2SM R18/1200FT FG CLR 03/03 A3015 RMK AO2
Pressio 30.15 in
Visibilitas 0.5 milia passuum
Clouds Serena
Frigus Venti 41 °F
Frigus in quo Ros apparet 41 °F
Umor 99%
Rainfall 0.00 in
Snow Depth Not available.
6:28 AM 5:29 PM
Last Quarter, 37% visible
SPECI KFTK 200618Z AUTO 00000KT 1/2SM R18/1200FT FG CLR 03/03 A3015 RMK AO2

Get Your Daily Forecast Email!

Thanks for signing up!

Be on the lookout for a verification email in your inbox.

You'll start receiving the daily forecast at 8 AM.

×

10-Day Weather Forecast

Almanac

Astronomy

Feb. 20, 2017 Rise Set
Actual Time
Civil Twilight
Nautical Twilight
Astronomical Twilight
Moon
Length Of Visible Light
Length of Day
Tomorrow will be .
, % of the Moon is Illuminated

Today's Extremes

State Highs State Lows

Community

WunderPhotos

Upload Photos

1,962,540 photos uploaded!

WunderBlog® & News

Nearby

Air Quality

  Air Quality AQ Index Pollutant
Not available.

Snow Depth

Station Depth Elevation

Earthquake Activity

City Distance Mag. Time & Date
Minimum magnitude displayed is 2.5.

Coastal Water Temperatures

Locus Calor

Stations

Nearby Weather Stations

Station Location Temp Frigus Venti Frigus in quo Ros apparet Umor Ventus Precip. Elev Renovata Type
                   

Watches & Warnings

Dense Fog Advisory
Issued: 9:23 PM CST Feb. 19, 2017 – National Weather Service

... Dense fog advisory in effect until 9 am EST /8 am CST/
Monday...

The National Weather Service in Louisville has issued a dense fog
advisory, which is in effect until 9 am EST /8 am CST/ Monday.

* Visibility... will drop to one quarter mile or less at times.

* Impacts... those going to work or school in the morning may need
to allow extra time to reach their destination.

Precautionary/preparedness actions...

A dense fog advisory means visibilities will frequently be
reduced to less than one quarter mile. If driving... slow down...
use your low beam headlights... and leave plenty of distance ahead
of you.



13